sensor_id;sensor_type;location;lat;lon;timestamp;P1;durP1;ratioP1;P2;durP2;ratioP2
60478;SDS011;46321;48.398;11.754;2023-04-24T00:00:15;3.35;;;1.75;;
60478;SDS011;46321;48.398;11.754;2023-04-24T00:02:43;2.28;;;1.70;;
60478;SDS011;46321;48.398;11.754;2023-04-24T00:05:15;5.75;;;2.72;;
60478;SDS011;46321;48.398;11.754;2023-04-24T00:07:42;3.67;;;1.50;;
60478;SDS011;46321;48.398;11.754;2023-04-24T00:10:08;2.10;;;1.50;;
60478;SDS011;46321;48.398;11.754;2023-04-24T00:12:34;2.95;;;1.60;;
60478;SDS011;46321;48.398;11.754;2023-04-24T00:14:59;2.63;;;1.48;;
60478;SDS011;46321;48.398;11.754;2023-04-24T00:17:25;2.15;;;1.50;;
60478;SDS011;46321;48.398;11.754;2023-04-24T00:19:51;2.85;;;1.63;;
60478;SDS011;46321;48.398;11.754;2023-04-24T00:22:16;2.55;;;1.50;;
60478;SDS011;46321;48.398;11.754;2023-04-24T00:24:42;2.22;;;1.40;;
60478;SDS011;46321;48.398;11.754;2023-04-24T00:27:08;2.45;;;1.60;;
60478;SDS011;46321;48.398;11.754;2023-04-24T00:29:33;1.73;;;1.33;;
60478;SDS011;46321;48.398;11.754;2023-04-24T00:31:58;1.83;;;1.15;;
60478;SDS011;46321;48.398;11.754;2023-04-24T00:34:24;3.38;;;1.40;;
60478;SDS011;46321;48.398;11.754;2023-04-24T00:36:49;2.40;;;1.15;;
60478;SDS011;46321;48.398;11.754;2023-04-24T00:39:18;2.80;;;1.20;;
60478;SDS011;46321;48.398;11.754;2023-04-24T00:41:44;1.55;;;1.20;;
60478;SDS011;46321;48.398;11.754;2023-04-24T00:44:10;1.25;;;1.08;;
60478;SDS011;46321;48.398;11.754;2023-04-24T00:46:35;1.77;;;1.10;;
60478;SDS011;46321;48.398;11.754;2023-04-24T00:49:01;2.28;;;1.30;;
60478;SDS011;46321;48.398;11.754;2023-04-24T00:51:27;1.95;;;1.35;;
60478;SDS011;46321;48.398;11.754;2023-04-24T00:53:52;2.83;;;1.30;;
60478;SDS011;46321;48.398;11.754;2023-04-24T00:56:18;2.13;;;1.30;;
60478;SDS011;46321;48.398;11.754;2023-04-24T00:58:43;2.00;;;1.20;;
60478;SDS011;46321;48.398;11.754;2023-04-24T01:01:09;3.92;;;1.10;;
60478;SDS011;46321;48.398;11.754;2023-04-24T01:03:36;1.63;;;1.15;;
60478;SDS011;46321;48.398;11.754;2023-04-24T01:06:02;2.45;;;1.50;;
60478;SDS011;46321;48.398;11.754;2023-04-24T01:08:28;1.67;;;1.25;;
60478;SDS011;46321;48.398;11.754;2023-04-24T01:10:54;1.63;;;1.13;;
60478;SDS011;46321;48.398;11.754;2023-04-24T01:13:21;1.90;;;1.38;;
60478;SDS011;46321;48.398;11.754;2023-04-24T01:15:47;1.90;;;1.45;;
60478;SDS011;46321;48.398;11.754;2023-04-24T01:18:13;1.80;;;1.40;;
60478;SDS011;46321;48.398;11.754;2023-04-24T01:20:40;2.35;;;1.38;;
60478;SDS011;46321;48.398;11.754;2023-04-24T01:23:07;2.85;;;1.40;;
60478;SDS011;46321;48.398;11.754;2023-04-24T01:25:33;1.38;;;1.10;;
60478;SDS011;46321;48.398;11.754;2023-04-24T01:27:59;3.95;;;1.15;;
60478;SDS011;46321;48.398;11.754;2023-04-24T01:30:26;2.47;;;1.40;;
60478;SDS011;46321;48.398;11.754;2023-04-24T01:32:52;3.00;;;0.90;;
60478;SDS011;46321;48.398;11.754;2023-04-24T01:35:18;1.65;;;1.10;;
60478;SDS011;46321;48.398;11.754;2023-04-24T01:37:43;1.77;;;1.30;;
60478;SDS011;46321;48.398;11.754;2023-04-24T01:40:09;1.10;;;0.98;;
60478;SDS011;46321;48.398;11.754;2023-04-24T01:42:35;1.60;;;1.10;;
60478;SDS011;46321;48.398;11.754;2023-04-24T01:45:01;1.52;;;0.95;;
60478;SDS011;46321;48.398;11.754;2023-04-24T01:47:28;1.52;;;1.13;;
60478;SDS011;46321;48.398;11.754;2023-04-24T01:49:55;2.20;;;1.05;;
60478;SDS011;46321;48.398;11.754;2023-04-24T01:52:20;2.75;;;1.05;;
60478;SDS011;46321;48.398;11.754;2023-04-24T01:54:46;1.67;;;1.05;;
60478;SDS011;46321;48.398;11.754;2023-04-24T01:57:12;2.42;;;1.02;;
60478;SDS011;46321;48.398;11.754;2023-04-24T01:59:38;2.08;;;0.90;;
60478;SDS011;46321;48.398;11.754;2023-04-24T02:02:04;1.42;;;1.13;;
60478;SDS011;46321;48.398;11.754;2023-04-24T02:04:29;1.13;;;0.95;;
60478;SDS011;46321;48.398;11.754;2023-04-24T02:06:54;1.55;;;0.80;;
60478;SDS011;46321;48.398;11.754;2023-04-24T02:09:20;1.17;;;0.80;;
60478;SDS011;46321;48.398;11.754;2023-04-24T02:11:45;1.15;;;0.85;;
60478;SDS011;46321;48.398;11.754;2023-04-24T02:14:10;2.83;;;0.85;;
60478;SDS011;46321;48.398;11.754;2023-04-24T02:16:36;1.30;;;0.90;;
60478;SDS011;46321;48.398;11.754;2023-04-24T02:19:02;2.08;;;0.98;;
60478;SDS011;46321;48.398;11.754;2023-04-24T02:21:27;1.70;;;0.98;;
60478;SDS011;46321;48.398;11.754;2023-04-24T02:23:53;1.20;;;0.80;;
60478;SDS011;46321;48.398;11.754;2023-04-24T02:26:18;2.35;;;0.70;;
60478;SDS011;46321;48.398;11.754;2023-04-24T02:28:43;1.63;;;0.90;;
60478;SDS011;46321;48.398;11.754;2023-04-24T02:31:09;1.05;;;0.80;;
60478;SDS011;46321;48.398;11.754;2023-04-24T02:33:34;1.90;;;0.68;;
60478;SDS011;46321;48.398;11.754;2023-04-24T02:36:00;1.15;;;0.80;;
60478;SDS011;46321;48.398;11.754;2023-04-24T02:38:26;2.35;;;0.98;;
60478;SDS011;46321;48.398;11.754;2023-04-24T02:40:51;1.00;;;0.88;;
60478;SDS011;46321;48.398;11.754;2023-04-24T02:43:17;1.13;;;0.90;;
60478;SDS011;46321;48.398;11.754;2023-04-24T02:45:42;1.98;;;0.70;;
60478;SDS011;46321;48.398;11.754;2023-04-24T02:48:07;3.08;;;1.00;;
60478;SDS011;46321;48.398;11.754;2023-04-24T02:50:32;0.93;;;0.70;;
60478;SDS011;46321;48.398;11.754;2023-04-24T02:52:58;0.93;;;0.80;;
60478;SDS011;46321;48.398;11.754;2023-04-24T02:55:23;1.27;;;0.80;;
60478;SDS011;46321;48.398;11.754;2023-04-24T02:57:49;0.73;;;0.52;;
60478;SDS011;46321;48.398;11.754;2023-04-24T03:00:14;0.90;;;0.68;;
60478;SDS011;46321;48.398;11.754;2023-04-24T03:02:39;1.70;;;0.70;;
60478;SDS011;46321;48.398;11.754;2023-04-24T03:05:05;1.35;;;0.90;;
60478;SDS011;46321;48.398;11.754;2023-04-24T03:07:30;0.60;;;0.50;;
60478;SDS011;46321;48.398;11.754;2023-04-24T03:09:56;1.55;;;0.60;;
60478;SDS011;46321;48.398;11.754;2023-04-24T03:12:23;1.63;;;0.80;;
60478;SDS011;46321;48.398;11.754;2023-04-24T03:14:48;1.20;;;0.60;;
60478;SDS011;46321;48.398;11.754;2023-04-24T03:17:14;1.10;;;0.50;;
60478;SDS011;46321;48.398;11.754;2023-04-24T03:19:39;2.13;;;0.60;;
60478;SDS011;46321;48.398;11.754;2023-04-24T03:22:05;1.33;;;0.75;;
60478;SDS011;46321;48.398;11.754;2023-04-24T03:24:30;1.00;;;0.65;;
60478;SDS011;46321;48.398;11.754;2023-04-24T03:26:55;1.23;;;0.63;;
60478;SDS011;46321;48.398;11.754;2023-04-24T03:29:21;1.55;;;0.70;;
60478;SDS011;46321;48.398;11.754;2023-04-24T03:31:47;0.80;;;0.60;;
60478;SDS011;46321;48.398;11.754;2023-04-24T03:34:12;1.25;;;0.90;;
60478;SDS011;46321;48.398;11.754;2023-04-24T03:36:37;0.85;;;0.70;;
60478;SDS011;46321;48.398;11.754;2023-04-24T03:39:03;1.00;;;0.60;;
60478;SDS011;46321;48.398;11.754;2023-04-24T03:41:28;2.75;;;0.50;;
60478;SDS011;46321;48.398;11.754;2023-04-24T03:43:55;1.17;;;0.60;;
60478;SDS011;46321;48.398;11.754;2023-04-24T03:46:20;2.63;;;0.80;;
60478;SDS011;46321;48.398;11.754;2023-04-24T03:48:45;0.77;;;0.70;;
60478;SDS011;46321;48.398;11.754;2023-04-24T03:51:11;1.27;;;0.60;;
60478;SDS011;46321;48.398;11.754;2023-04-24T03:53:36;1.00;;;0.60;;
60478;SDS011;46321;48.398;11.754;2023-04-24T03:56:01;1.67;;;0.80;;
60478;SDS011;46321;48.398;11.754;2023-04-24T03:58:27;0.77;;;0.70;;
60478;SDS011;46321;48.398;11.754;2023-04-24T04:00:52;1.75;;;0.70;;
60478;SDS011;46321;48.398;11.754;2023-04-24T04:03:17;1.35;;;0.93;;
60478;SDS011;46321;48.398;11.754;2023-04-24T04:05:42;1.42;;;0.65;;
60478;SDS011;46321;48.398;11.754;2023-04-24T04:08:08;2.20;;;0.80;;
60478;SDS011;46321;48.398;11.754;2023-04-24T04:10:33;2.22;;;0.63;;
60478;SDS011;46321;48.398;11.754;2023-04-24T04:12:58;1.02;;;0.60;;
60478;SDS011;46321;48.398;11.754;2023-04-24T04:15:23;0.63;;;0.60;;
60478;SDS011;46321;48.398;11.754;2023-04-24T04:17:49;1.70;;;0.68;;
60478;SDS011;46321;48.398;11.754;2023-04-24T04:20:14;0.77;;;0.60;;
60478;SDS011;46321;48.398;11.754;2023-04-24T04:22:39;1.10;;;0.70;;
60478;SDS011;46321;48.398;11.754;2023-04-24T04:25:05;1.10;;;0.80;;
60478;SDS011;46321;48.398;11.754;2023-04-24T04:27:31;1.13;;;0.68;;
60478;SDS011;46321;48.398;11.754;2023-04-24T04:29:57;1.10;;;0.80;;
60478;SDS011;46321;48.398;11.754;2023-04-24T04:32:33;1.77;;;1.00;;
60478;SDS011;46321;48.398;11.754;2023-04-24T04:34:59;1.25;;;1.05;;
60478;SDS011;46321;48.398;11.754;2023-04-24T04:37:28;2.35;;;1.08;;
60478;SDS011;46321;48.398;11.754;2023-04-24T04:39:54;1.23;;;0.85;;
60478;SDS011;46321;48.398;11.754;2023-04-24T04:42:19;2.47;;;0.70;;
60478;SDS011;46321;48.398;11.754;2023-04-24T04:44:45;1.00;;;0.80;;
60478;SDS011;46321;48.398;11.754;2023-04-24T04:47:10;1.42;;;0.80;;
60478;SDS011;46321;48.398;11.754;2023-04-24T04:49:36;2.08;;;0.95;;
60478;SDS011;46321;48.398;11.754;2023-04-24T04:52:03;0.75;;;0.60;;
60478;SDS011;46321;48.398;11.754;2023-04-24T04:54:28;1.25;;;0.82;;
60478;SDS011;46321;48.398;11.754;2023-04-24T04:56:54;1.40;;;0.82;;
60478;SDS011;46321;48.398;11.754;2023-04-24T04:59:19;0.95;;;0.60;;
60478;SDS011;46321;48.398;11.754;2023-04-24T05:01:45;1.67;;;0.70;;
60478;SDS011;46321;48.398;11.754;2023-04-24T05:04:10;0.82;;;0.70;;
60478;SDS011;46321;48.398;11.754;2023-04-24T05:06:35;1.05;;;0.77;;
60478;SDS011;46321;48.398;11.754;2023-04-24T05:09:00;0.80;;;0.73;;
60478;SDS011;46321;48.398;11.754;2023-04-24T05:11:26;1.17;;;0.80;;
60478;SDS011;46321;48.398;11.754;2023-04-24T05:13:51;2.60;;;1.40;;
60478;SDS011;46321;48.398;11.754;2023-04-24T05:16:16;4.72;;;2.00;;
60478;SDS011;46321;48.398;11.754;2023-04-24T05:18:41;3.92;;;2.05;;
60478;SDS011;46321;48.398;11.754;2023-04-24T05:21:07;3.60;;;2.13;;
60478;SDS011;46321;48.398;11.754;2023-04-24T05:23:32;2.20;;;1.33;;
60478;SDS011;46321;48.398;11.754;2023-04-24T05:25:57;2.45;;;1.80;;
60478;SDS011;46321;48.398;11.754;2023-04-24T05:28:23;3.45;;;1.95;;
60478;SDS011;46321;48.398;11.754;2023-04-24T05:30:48;2.38;;;1.90;;
60478;SDS011;46321;48.398;11.754;2023-04-24T05:33:13;2.90;;;1.88;;
60478;SDS011;46321;48.398;11.754;2023-04-24T05:35:39;2.38;;;1.80;;
60478;SDS011;46321;48.398;11.754;2023-04-24T05:38:10;2.75;;;1.88;;
60478;SDS011;46321;48.398;11.754;2023-04-24T05:40:36;1.80;;;1.58;;
60478;SDS011;46321;48.398;11.754;2023-04-24T05:43:01;2.92;;;1.63;;
60478;SDS011;46321;48.398;11.754;2023-04-24T05:45:26;1.95;;;1.50;;
60478;SDS011;46321;48.398;11.754;2023-04-24T05:47:52;2.03;;;1.45;;
60478;SDS011;46321;48.398;11.754;2023-04-24T05:50:17;2.58;;;1.05;;
60478;SDS011;46321;48.398;11.754;2023-04-24T05:52:43;3.05;;;1.20;;
60478;SDS011;46321;48.398;11.754;2023-04-24T05:55:08;3.70;;;1.80;;
60478;SDS011;46321;48.398;11.754;2023-04-24T05:57:33;2.25;;;1.60;;
60478;SDS011;46321;48.398;11.754;2023-04-24T05:59:58;2.08;;;1.70;;
60478;SDS011;46321;48.398;11.754;2023-04-24T06:02:24;5.45;;;1.40;;
60478;SDS011;46321;48.398;11.754;2023-04-24T06:04:49;1.70;;;1.20;;
60478;SDS011;46321;48.398;11.754;2023-04-24T06:07:14;2.30;;;1.17;;
60478;SDS011;46321;48.398;11.754;2023-04-24T06:09:40;1.45;;;1.20;;
60478;SDS011;46321;48.398;11.754;2023-04-24T06:12:05;4.47;;;1.73;;
60478;SDS011;46321;48.398;11.754;2023-04-24T06:14:33;4.05;;;2.25;;
60478;SDS011;46321;48.398;11.754;2023-04-24T06:16:58;1.98;;;1.30;;
60478;SDS011;46321;48.398;11.754;2023-04-24T06:19:23;1.98;;;1.15;;
60478;SDS011;46321;48.398;11.754;2023-04-24T06:21:49;1.60;;;0.90;;
60478;SDS011;46321;48.398;11.754;2023-04-24T06:24:14;1.30;;;0.80;;
60478;SDS011;46321;48.398;11.754;2023-04-24T06:26:41;1.90;;;0.73;;
60478;SDS011;46321;48.398;11.754;2023-04-24T06:29:06;1.27;;;0.98;;
60478;SDS011;46321;48.398;11.754;2023-04-24T06:31:32;1.00;;;0.60;;
60478;SDS011;46321;48.398;11.754;2023-04-24T06:34:01;0.85;;;0.60;;
60478;SDS011;46321;48.398;11.754;2023-04-24T06:36:27;1.42;;;0.90;;
60478;SDS011;46321;48.398;11.754;2023-04-24T06:38:52;1.13;;;0.70;;
60478;SDS011;46321;48.398;11.754;2023-04-24T06:41:18;0.70;;;0.60;;
60478;SDS011;46321;48.398;11.754;2023-04-24T06:43:44;0.82;;;0.60;;
60478;SDS011;46321;48.398;11.754;2023-04-24T06:46:09;1.13;;;0.55;;
60478;SDS011;46321;48.398;11.754;2023-04-24T06:48:35;1.00;;;0.70;;
60478;SDS011;46321;48.398;11.754;2023-04-24T06:51:00;0.50;;;0.50;;
60478;SDS011;46321;48.398;11.754;2023-04-24T06:53:25;1.70;;;0.60;;
60478;SDS011;46321;48.398;11.754;2023-04-24T06:55:51;1.70;;;0.50;;
60478;SDS011;46321;48.398;11.754;2023-04-24T06:58:16;0.90;;;0.60;;
60478;SDS011;46321;48.398;11.754;2023-04-24T07:00:41;0.80;;;0.50;;
60478;SDS011;46321;48.398;11.754;2023-04-24T07:03:07;0.93;;;0.55;;
60478;SDS011;46321;48.398;11.754;2023-04-24T07:05:32;0.75;;;0.50;;
60478;SDS011;46321;48.398;11.754;2023-04-24T07:08:00;0.80;;;0.60;;
60478;SDS011;46321;48.398;11.754;2023-04-24T07:10:26;0.88;;;0.70;;
60478;SDS011;46321;48.398;11.754;2023-04-24T07:12:53;1.17;;;0.65;;
60478;SDS011;46321;48.398;11.754;2023-04-24T07:15:19;0.82;;;0.68;;
60478;SDS011;46321;48.398;11.754;2023-04-24T07:17:44;0.60;;;0.50;;
60478;SDS011;46321;48.398;11.754;2023-04-24T07:20:10;1.08;;;0.50;;
60478;SDS011;46321;48.398;11.754;2023-04-24T07:22:37;1.65;;;0.47;;
60478;SDS011;46321;48.398;11.754;2023-04-24T07:25:03;1.27;;;0.40;;
60478;SDS011;46321;48.398;11.754;2023-04-24T07:27:29;0.50;;;0.40;;
60478;SDS011;46321;48.398;11.754;2023-04-24T07:29:55;0.63;;;0.50;;
60478;SDS011;46321;48.398;11.754;2023-04-24T07:32:20;0.93;;;0.50;;
60478;SDS011;46321;48.398;11.754;2023-04-24T07:34:45;0.75;;;0.40;;
60478;SDS011;46321;48.398;11.754;2023-04-24T07:37:11;1.35;;;0.43;;
60478;SDS011;46321;48.398;11.754;2023-04-24T07:39:36;0.60;;;0.38;;
60478;SDS011;46321;48.398;11.754;2023-04-24T07:42:01;0.40;;;0.40;;
60478;SDS011;46321;48.398;11.754;2023-04-24T07:44:27;0.47;;;0.30;;
60478;SDS011;46321;48.398;11.754;2023-04-24T07:46:52;0.40;;;0.40;;
60478;SDS011;46321;48.398;11.754;2023-04-24T07:49:18;0.52;;;0.40;;
60478;SDS011;46321;48.398;11.754;2023-04-24T07:51:44;2.28;;;0.40;;
60478;SDS011;46321;48.398;11.754;2023-04-24T07:54:10;0.93;;;0.50;;
60478;SDS011;46321;48.398;11.754;2023-04-24T07:56:35;0.60;;;0.40;;
60478;SDS011;46321;48.398;11.754;2023-04-24T07:59:03;0.57;;;0.30;;
60478;SDS011;46321;48.398;11.754;2023-04-24T08:01:29;0.60;;;0.35;;
60478;SDS011;46321;48.398;11.754;2023-04-24T08:03:54;0.63;;;0.40;;
60478;SDS011;46321;48.398;11.754;2023-04-24T08:06:19;0.22;;;0.22;;
60478;SDS011;46321;48.398;11.754;2023-04-24T08:08:45;0.38;;;0.20;;
60478;SDS011;46321;48.398;11.754;2023-04-24T08:11:10;0.20;;;0.20;;
60478;SDS011;46321;48.398;11.754;2023-04-24T08:13:35;0.30;;;0.30;;
60478;SDS011;46321;48.398;11.754;2023-04-24T08:16:01;0.73;;;0.40;;
60478;SDS011;46321;48.398;11.754;2023-04-24T08:18:26;0.70;;;0.40;;
60478;SDS011;46321;48.398;11.754;2023-04-24T08:20:52;0.30;;;0.30;;
60478;SDS011;46321;48.398;11.754;2023-04-24T08:23:17;0.43;;;0.43;;
60478;SDS011;46321;48.398;11.754;2023-04-24T08:25:43;1.33;;;0.40;;
60478;SDS011;46321;48.398;11.754;2023-04-24T08:28:08;0.57;;;0.40;;
60478;SDS011;46321;48.398;11.754;2023-04-24T08:30:35;0.52;;;0.40;;
60478;SDS011;46321;48.398;11.754;2023-04-24T08:33:00;1.50;;;0.40;;
60478;SDS011;46321;48.398;11.754;2023-04-24T08:35:26;0.50;;;0.40;;
60478;SDS011;46321;48.398;11.754;2023-04-24T08:37:52;3.90;;;0.88;;
60478;SDS011;46321;48.398;11.754;2023-04-24T08:40:18;1.70;;;0.40;;
60478;SDS011;46321;48.398;11.754;2023-04-24T08:42:51;2.45;;;0.40;;
60478;SDS011;46321;48.398;11.754;2023-04-24T08:45:19;0.75;;;0.43;;
60478;SDS011;46321;48.398;11.754;2023-04-24T08:47:45;1.00;;;0.60;;
60478;SDS011;46321;48.398;11.754;2023-04-24T08:50:11;0.95;;;0.70;;
60478;SDS011;46321;48.398;11.754;2023-04-24T08:52:37;2.97;;;1.80;;
60478;SDS011;46321;48.398;11.754;2023-04-24T08:55:03;6.07;;;4.10;;
60478;SDS011;46321;48.398;11.754;2023-04-24T08:57:30;4.10;;;1.20;;
60478;SDS011;46321;48.398;11.754;2023-04-24T08:59:57;1.45;;;0.85;;
60478;SDS011;46321;48.398;11.754;2023-04-24T09:02:23;3.00;;;0.80;;
60478;SDS011;46321;48.398;11.754;2023-04-24T09:04:50;0.65;;;0.60;;
60478;SDS011;46321;48.398;11.754;2023-04-24T09:07:17;0.82;;;0.68;;
60478;SDS011;46321;48.398;11.754;2023-04-24T09:09:44;1.67;;;1.00;;
60478;SDS011;46321;48.398;11.754;2023-04-24T09:12:10;1.15;;;0.80;;
60478;SDS011;46321;48.398;11.754;2023-04-24T09:14:36;3.10;;;0.93;;
60478;SDS011;46321;48.398;11.754;2023-04-24T09:17:07;1.23;;;0.88;;
60478;SDS011;46321;48.398;11.754;2023-04-24T09:19:32;1.40;;;0.98;;
60478;SDS011;46321;48.398;11.754;2023-04-24T09:21:58;1.33;;;1.08;;
60478;SDS011;46321;48.398;11.754;2023-04-24T09:24:23;1.85;;;0.90;;
60478;SDS011;46321;48.398;11.754;2023-04-24T09:26:49;1.15;;;0.80;;
60478;SDS011;46321;48.398;11.754;2023-04-24T09:29:23;1.75;;;1.05;;
60478;SDS011;46321;48.398;11.754;2023-04-24T09:31:49;1.23;;;0.88;;
60478;SDS011;46321;48.398;11.754;2023-04-24T09:34:18;0.90;;;0.60;;
60478;SDS011;46321;48.398;11.754;2023-04-24T09:36:46;1.25;;;0.70;;
60478;SDS011;46321;48.398;11.754;2023-04-24T09:39:12;1.30;;;0.90;;
60478;SDS011;46321;48.398;11.754;2023-04-24T09:41:44;1.15;;;0.80;;
60478;SDS011;46321;48.398;11.754;2023-04-24T09:44:14;1.00;;;0.70;;
60478;SDS011;46321;48.398;11.754;2023-04-24T09:46:41;1.13;;;0.80;;
60478;SDS011;46321;48.398;11.754;2023-04-24T09:49:09;2.38;;;0.80;;
60478;SDS011;46321;48.398;11.754;2023-04-24T09:51:39;1.13;;;0.80;;
60478;SDS011;46321;48.398;11.754;2023-04-24T09:54:15;1.05;;;0.70;;
60478;SDS011;46321;48.398;11.754;2023-04-24T09:56:43;1.10;;;0.80;;
60478;SDS011;46321;48.398;11.754;2023-04-24T09:59:10;1.05;;;0.80;;
60478;SDS011;46321;48.398;11.754;2023-04-24T10:01:35;1.10;;;0.80;;
60478;SDS011;46321;48.398;11.754;2023-04-24T10:04:03;2.63;;;0.88;;
60478;SDS011;46321;48.398;11.754;2023-04-24T10:06:34;1.00;;;0.80;;
60478;SDS011;46321;48.398;11.754;2023-04-24T10:09:00;1.60;;;0.80;;
60478;SDS011;46321;48.398;11.754;2023-04-24T10:11:26;1.38;;;1.13;;
60478;SDS011;46321;48.398;11.754;2023-04-24T10:13:53;2.78;;;0.85;;
60478;SDS011;46321;48.398;11.754;2023-04-24T10:16:18;2.28;;;1.00;;
60478;SDS011;46321;48.398;11.754;2023-04-24T10:18:46;2.75;;;1.70;;
60478;SDS011;46321;48.398;11.754;2023-04-24T10:21:14;2.05;;;1.20;;
60478;SDS011;46321;48.398;11.754;2023-04-24T10:23:39;2.15;;;1.10;;
60478;SDS011;46321;48.398;11.754;2023-04-24T10:26:08;1.58;;;1.15;;
60478;SDS011;46321;48.398;11.754;2023-04-24T10:28:36;2.22;;;1.40;;
60478;SDS011;46321;48.398;11.754;2023-04-24T10:31:01;1.60;;;1.05;;
60478;SDS011;46321;48.398;11.754;2023-04-24T10:33:28;1.30;;;1.00;;
60478;SDS011;46321;48.398;11.754;2023-04-24T10:35:55;1.40;;;1.00;;
60478;SDS011;46321;48.398;11.754;2023-04-24T10:38:24;1.92;;;1.15;;
60478;SDS011;46321;48.398;11.754;2023-04-24T10:40:51;3.40;;;1.17;;
60478;SDS011;46321;48.398;11.754;2023-04-24T10:43:31;1.20;;;0.82;;
60478;SDS011;46321;48.398;11.754;2023-04-24T10:46:02;1.50;;;0.85;;
60478;SDS011;46321;48.398;11.754;2023-04-24T10:48:29;1.40;;;0.82;;
60478;SDS011;46321;48.398;11.754;2023-04-24T10:50:55;2.60;;;1.30;;
60478;SDS011;46321;48.398;11.754;2023-04-24T10:53:21;1.83;;;0.90;;
60478;SDS011;46321;48.398;11.754;2023-04-24T10:55:49;1.23;;;1.08;;
60478;SDS011;46321;48.398;11.754;2023-04-24T10:58:21;1.83;;;1.17;;
60478;SDS011;46321;48.398;11.754;2023-04-24T11:00:55;1.70;;;1.00;;
60478;SDS011;46321;48.398;11.754;2023-04-24T11:03:28;2.50;;;1.02;;
60478;SDS011;46321;48.398;11.754;2023-04-24T11:06:02;1.80;;;0.95;;
60478;SDS011;46321;48.398;11.754;2023-04-24T11:08:38;2.28;;;1.00;;
60478;SDS011;46321;48.398;11.754;2023-04-24T11:11:14;2.13;;;1.30;;
60478;SDS011;46321;48.398;11.754;2023-04-24T11:16:20;1.20;;;0.90;;
60478;SDS011;46321;48.398;11.754;2023-04-24T11:21:38;3.13;;;0.85;;
60478;SDS011;46321;48.398;11.754;2023-04-24T11:24:24;3.05;;;0.75;;
60478;SDS011;46321;48.398;11.754;2023-04-24T11:26:51;3.53;;;0.60;;
60478;SDS011;46321;48.398;11.754;2023-04-24T11:29:19;1.95;;;0.90;;
60478;SDS011;46321;48.398;11.754;2023-04-24T11:31:46;8.73;;;1.33;;
60478;SDS011;46321;48.398;11.754;2023-04-24T11:34:16;1.88;;;1.10;;
60478;SDS011;46321;48.398;11.754;2023-04-24T11:36:42;1.77;;;1.05;;
60478;SDS011;46321;48.398;11.754;2023-04-24T11:39:09;2.00;;;1.20;;
60478;SDS011;46321;48.398;11.754;2023-04-24T11:41:36;1.85;;;1.20;;
60478;SDS011;46321;48.398;11.754;2023-04-24T11:44:02;1.77;;;0.88;;
60478;SDS011;46321;48.398;11.754;2023-04-24T11:46:30;1.92;;;1.20;;
60478;SDS011;46321;48.398;11.754;2023-04-24T11:48:56;2.72;;;0.88;;
60478;SDS011;46321;48.398;11.754;2023-04-24T11:51:23;1.10;;;0.80;;
60478;SDS011;46321;48.398;11.754;2023-04-24T11:53:50;2.00;;;1.25;;
60478;SDS011;46321;48.398;11.754;2023-04-24T11:56:20;5.78;;;3.70;;
60478;SDS011;46321;48.398;11.754;2023-04-24T11:58:47;2.03;;;1.10;;
60478;SDS011;46321;48.398;11.754;2023-04-24T12:01:12;1.27;;;1.00;;
60478;SDS011;46321;48.398;11.754;2023-04-24T12:03:38;1.38;;;1.00;;
60478;SDS011;46321;48.398;11.754;2023-04-24T12:06:07;1.65;;;1.27;;
60478;SDS011;46321;48.398;11.754;2023-04-24T12:08:33;4.43;;;0.90;;
60478;SDS011;46321;48.398;11.754;2023-04-24T12:11:08;1.25;;;0.95;;
60478;SDS011;46321;48.398;11.754;2023-04-24T12:13:33;2.17;;;1.10;;
60478;SDS011;46321;48.398;11.754;2023-04-24T12:16:02;1.83;;;1.23;;
60478;SDS011;46321;48.398;11.754;2023-04-24T12:18:29;1.88;;;1.27;;
60478;SDS011;46321;48.398;11.754;2023-04-24T12:20:54;2.28;;;1.30;;
60478;SDS011;46321;48.398;11.754;2023-04-24T12:23:35;3.13;;;1.40;;
60478;SDS011;46321;48.398;11.754;2023-04-24T12:26:01;1.30;;;1.00;;
60478;SDS011;46321;48.398;11.754;2023-04-24T12:28:34;1.52;;;1.20;;
60478;SDS011;46321;48.398;11.754;2023-04-24T12:31:01;2.63;;;1.33;;
60478;SDS011;46321;48.398;11.754;2023-04-24T12:33:26;1.45;;;1.10;;
60478;SDS011;46321;48.398;11.754;2023-04-24T12:35:52;2.13;;;1.30;;
60478;SDS011;46321;48.398;11.754;2023-04-24T12:38:23;2.13;;;1.15;;
60478;SDS011;46321;48.398;11.754;2023-04-24T12:41:04;3.55;;;1.52;;
60478;SDS011;46321;48.398;11.754;2023-04-24T12:43:31;1.98;;;1.33;;
60478;SDS011;46321;48.398;11.754;2023-04-24T12:45:57;1.83;;;1.00;;
60478;SDS011;46321;48.398;11.754;2023-04-24T12:48:22;1.67;;;1.02;;
60478;SDS011;46321;48.398;11.754;2023-04-24T12:50:48;3.25;;;1.42;;
60478;SDS011;46321;48.398;11.754;2023-04-24T12:53:13;1.30;;;1.10;;
60478;SDS011;46321;48.398;11.754;2023-04-24T12:55:39;1.27;;;1.00;;
60478;SDS011;46321;48.398;11.754;2023-04-24T12:58:05;1.73;;;1.33;;
60478;SDS011;46321;48.398;11.754;2023-04-24T13:00:30;1.00;;;0.80;;
60478;SDS011;46321;48.398;11.754;2023-04-24T13:02:55;1.30;;;1.02;;
60478;SDS011;46321;48.398;11.754;2023-04-24T13:05:21;1.40;;;1.00;;
60478;SDS011;46321;48.398;11.754;2023-04-24T13:07:46;3.75;;;1.00;;
60478;SDS011;46321;48.398;11.754;2023-04-24T13:10:11;1.80;;;0.98;;
60478;SDS011;46321;48.398;11.754;2023-04-24T13:12:38;1.33;;;1.00;;
60478;SDS011;46321;48.398;11.754;2023-04-24T13:15:04;1.48;;;1.13;;
60478;SDS011;46321;48.398;11.754;2023-04-24T13:17:30;2.95;;;1.75;;
60478;SDS011;46321;48.398;11.754;2023-04-24T13:19:55;3.00;;;1.08;;
60478;SDS011;46321;48.398;11.754;2023-04-24T13:22:20;1.85;;;0.77;;
60478;SDS011;46321;48.398;11.754;2023-04-24T13:24:46;1.88;;;1.10;;
60478;SDS011;46321;48.398;11.754;2023-04-24T13:27:13;2.70;;;0.85;;
60478;SDS011;46321;48.398;11.754;2023-04-24T13:29:38;1.13;;;0.90;;
60478;SDS011;46321;48.398;11.754;2023-04-24T13:32:04;2.85;;;0.98;;
60478;SDS011;46321;48.398;11.754;2023-04-24T13:34:29;1.17;;;0.90;;
60478;SDS011;46321;48.398;11.754;2023-04-24T13:36:55;1.50;;;0.80;;
60478;SDS011;46321;48.398;11.754;2023-04-24T13:39:22;2.72;;;0.80;;
60478;SDS011;46321;48.398;11.754;2023-04-24T13:41:48;1.15;;;0.93;;
60478;SDS011;46321;48.398;11.754;2023-04-24T13:44:14;1.23;;;0.85;;
60478;SDS011;46321;48.398;11.754;2023-04-24T13:46:40;2.15;;;0.90;;
60478;SDS011;46321;48.398;11.754;2023-04-24T13:49:06;1.35;;;0.80;;
60478;SDS011;46321;48.398;11.754;2023-04-24T13:51:32;1.20;;;0.90;;
60478;SDS011;46321;48.398;11.754;2023-04-24T13:53:57;3.22;;;1.10;;
60478;SDS011;46321;48.398;11.754;2023-04-24T13:56:22;3.00;;;1.13;;
60478;SDS011;46321;48.398;11.754;2023-04-24T13:58:48;1.80;;;1.10;;
60478;SDS011;46321;48.398;11.754;2023-04-24T14:01:13;1.98;;;0.88;;
60478;SDS011;46321;48.398;11.754;2023-04-24T14:03:39;1.70;;;1.17;;
60478;SDS011;46321;48.398;11.754;2023-04-24T14:06:05;1.77;;;1.20;;
60478;SDS011;46321;48.398;11.754;2023-04-24T14:08:31;1.65;;;1.40;;
60478;SDS011;46321;48.398;11.754;2023-04-24T14:10:57;1.92;;;1.25;;
60478;SDS011;46321;48.398;11.754;2023-04-24T14:13:23;3.92;;;1.92;;
60478;SDS011;46321;48.398;11.754;2023-04-24T14:15:48;2.65;;;1.70;;
60478;SDS011;46321;48.398;11.754;2023-04-24T14:18:14;2.47;;;1.60;;
60478;SDS011;46321;48.398;11.754;2023-04-24T14:20:39;2.05;;;1.60;;
60478;SDS011;46321;48.398;11.754;2023-04-24T14:23:05;2.17;;;1.50;;
60478;SDS011;46321;48.398;11.754;2023-04-24T14:25:30;3.20;;;1.10;;
60478;SDS011;46321;48.398;11.754;2023-04-24T14:27:55;2.05;;;1.70;;
60478;SDS011;46321;48.398;11.754;2023-04-24T14:30:21;3.53;;;1.92;;
60478;SDS011;46321;48.398;11.754;2023-04-24T14:32:46;3.08;;;1.83;;